Time;durP1;ratioP1;P1;durP2;ratioP2;P2;SDS_P1;SDS_P2;PMS_P1;PMS_P2;Temp;Humidity;BMP_temperature;BMP_pressure;BME280_temperature;BME280_humidity;BME280_pressure;Samples;Min_cycle;Max_cycle;Signal;HPM_P1;HPM_P2
2023/12/16 00:01:16;;;;;;;3.20;2.30;;;;;;;6.42;100.00;103840.47;5013573;28;20037;-85
2023/12/16 00:03:42;;;;;;;4.68;2.65;;;;;;;6.41;100.00;103836.16;5013033;28;20025;-84
2023/12/16 00:06:07;;;;;;;7.80;3.20;;;;;;;6.36;100.00;103830.75;5012759;28;20026;-84
2023/12/16 00:08:33;;;;;;;6.20;2.90;;;;;;;6.37;100.00;103832.50;5013179;28;20101;-85
2023/12/16 00:13:29;;;;;;;5.18;2.70;;;;;;;6.37;100.00;103836.81;5013262;23;20463;-84
2023/12/16 00:15:57;;;;;;;4.50;2.55;;;;;;;6.39;100.00;103840.34;4972918;28;20126;-85
2023/12/16 00:18:44;;;;;;;4.60;2.50;;;;;;;6.34;100.00;103834.97;4973737;28;20026;-84
2023/12/16 00:21:09;;;;;;;3.10;2.30;;;;;;;6.38;100.00;103828.25;4976036;28;20106;-85
2023/12/16 00:23:37;;;;;;;3.30;2.30;;;;;;;6.36;100.00;103820.41;4977928;28;20065;-85
2023/12/16 00:26:18;;;;;;;3.45;2.17;;;;;;;6.26;100.00;103813.94;4976939;28;20391;-85
2023/12/16 00:28:44;;;;;;;4.10;2.50;;;;;;;6.37;100.00;103826.47;4977554;28;20027;-84
2023/12/16 00:31:30;;;;;;;4.47;2.40;;;;;;;6.33;100.00;103821.16;4977795;28;20030;-85
2023/12/16 00:33:59;;;;;;;3.45;2.30;;;;;;;6.41;100.00;103833.59;4976575;28;20552;-84
2023/12/16 00:36:31;;;;;;;3.28;2.17;;;;;;;6.31;100.00;103809.00;4977373;28;20030;-84
2023/12/16 00:38:58;;;;;;;2.75;1.92;;;;;;;6.29;100.00;103800.28;4977605;28;20041;-85
2023/12/16 00:41:23;;;;;;;2.78;2.13;;;;;;;6.39;100.00;103810.25;4980049;28;20447;-84
2023/12/16 00:43:54;;;;;;;3.60;2.17;;;;;;;6.32;100.00;103798.75;4987797;28;20069;-84
2023/12/16 00:46:19;;;;;;;2.72;1.80;;;;;;;6.27;100.00;103794.16;4976911;28;20058;-84
2023/12/16 00:48:44;;;;;;;2.33;1.83;;;;;;;6.35;100.00;103808.38;4977180;28;20061;-85
2023/12/16 00:51:10;;;;;;;2.40;1.70;;;;;;;6.42;100.00;103810.44;4977427;28;20113;-84
2023/12/16 00:53:37;;;;;;;3.40;1.90;;;;;;;6.40;100.00;103816.34;4976264;28;20061;-84
2023/12/16 00:56:12;;;;;;;2.22;1.80;;;;;;;6.29;100.00;103806.34;4976638;28;20035;-84
2023/12/16 00:58:37;;;;;;;2.47;1.70;;;;;;;6.28;100.00;103804.59;4976557;28;20034;-84
2023/12/16 01:01:12;;;;;;;2.20;1.70;;;;;;;6.30;100.00;103802.97;4975564;28;20035;-84
2023/12/16 01:03:40;;;;;;;2.60;1.95;;;;;;;6.34;100.00;103799.72;4976222;28;20035;-84
2023/12/16 01:06:08;;;;;;;1.95;1.70;;;;;;;6.31;100.00;103799.56;4976305;28;20023;-84
2023/12/16 01:08:49;;;;;;;1.80;1.63;;;;;;;6.26;100.00;103792.41;4975354;28;20061;-84
2023/12/16 01:11:23;;;;;;;1.58;1.40;;;;;;;6.40;100.00;103817.19;4977104;28;20543;-84
2023/12/16 01:13:57;;;;;;;1.83;1.55;;;;;;;6.38;100.00;103812.78;4994843;28;20040;-84
2023/12/16 01:16:22;;;;;;;3.17;1.75;;;;;;;6.41;100.00;103823.25;4995004;28;20031;-84
2023/12/16 01:18:47;;;;;;;3.70;2.07;;;;;;;6.36;100.00;103815.25;4989680;28;20117;-85
2023/12/16 01:21:18;;;;;;;3.97;2.10;;;;;;;6.34;100.00;103812.63;4994915;28;20479;-84
2023/12/16 01:23:52;;;;;;;6.00;2.17;;;;;;;6.37;100.00;103819.63;4995188;28;20029;-85
2023/12/16 01:26:18;;;;;;;2.78;1.90;;;;;;;6.41;100.00;103828.41;4995445;28;20105;-84
2023/12/16 01:28:50;;;;;;;2.50;1.80;;;;;;;6.39;100.00;103812.84;4994537;28;20113;-85
2023/12/16 01:31:16;;;;;;;3.88;2.00;;;;;;;6.36;100.00;103809.22;4994738;28;20490;-84
2023/12/16 01:33:41;;;;;;;1.90;1.70;;;;;;;6.34;100.00;103801.44;4995099;28;20101;-84
2023/12/16 01:36:07;;;;;;;2.27;1.60;;;;;;;6.38;100.00;103807.63;4994989;28;20058;-84
2023/12/16 01:38:32;;;;;;;3.37;1.80;;;;;;;6.36;100.00;103804.94;4994888;28;20034;-84
2023/12/16 01:41:00;;;;;;;2.67;1.70;;;;;;;6.39;100.00;103804.25;4994825;28;20085;-84
2023/12/16 01:43:25;;;;;;;3.80;1.75;;;;;;;6.37;100.00;103801.56;4994258;28;20037;-84
2023/12/16 01:45:59;;;;;;;2.70;1.70;;;;;;;6.37;100.00;103793.81;4995205;28;20470;-84
2023/12/16 01:48:24;;;;;;;2.17;1.58;;;;;;;6.40;100.00;103806.00;4994808;28;20078;-84
2023/12/16 01:50:52;;;;;;;2.93;1.70;;;;;;;6.39;100.00;103804.25;4993848;28;20026;-84
2023/12/16 01:53:18;;;;;;;1.95;1.60;;;;;;;6.34;100.00;103802.31;4994985;28;20033;-84
2023/12/16 01:55:43;;;;;;;2.60;1.40;;;;;;;6.36;100.00;103804.06;4994673;28;20093;-85
2023/12/16 01:58:09;;;;;;;2.75;1.90;;;;;;;6.32;100.00;103798.75;4993972;28;20190;-84
2023/12/16 02:00:34;;;;;;;1.97;1.70;;;;;;;6.34;100.00;103801.44;4994510;28;20030;-85
2023/12/16 02:03:03;;;;;;;3.00;1.80;;;;;;;6.29;100.00;103795.13;4995238;28;20033;-84
2023/12/16 02:05:29;;;;;;;2.10;1.60;;;;;;;6.32;100.00;103803.91;4994164;28;20435;-84
2023/12/16 02:07:54;;;;;;;2.40;1.60;;;;;;;6.26;100.00;103788.16;4994354;28;20060;-85
2023/12/16 02:10:19;;;;;;;2.43;1.70;;;;;;;6.27;100.00;103800.22;4984040;28;20082;-84
2023/12/16 02:12:45;;;;;;;2.23;1.60;;;;;;;6.25;100.00;103796.69;4973691;28;20035;-84
2023/12/16 02:15:10;;;;;;;1.80;1.33;;;;;;;6.21;100.00;103804.19;4975122;28;20027;-85
2023/12/16 02:17:35;;;;;;;2.93;1.13;;;;;;;6.16;100.00;103797.09;4974148;28;20023;-84
2023/12/16 02:20:00;;;;;;;2.53;1.50;;;;;;;6.17;100.00;103805.75;4975130;28;20037;-84
2023/12/16 02:22:26;;;;;;;1.80;1.65;;;;;;;6.14;100.00;103806.44;4975175;28;20113;-84
2023/12/16 02:24:52;;;;;;;1.70;1.52;;;;;;;6.07;100.00;103806.09;4973900;28;20077;-84
2023/12/16 02:27:18;;;;;;;1.50;1.40;;;;;;;6.08;100.00;103813.88;4974950;28;20019;-84
2023/12/16 02:29:49;;;;;;;2.38;1.52;;;;;;;6.04;100.00;103806.78;4974320;28;20037;-85
2023/12/16 02:32:15;;;;;;;5.60;1.67;;;;;;;6.00;100.00;103804.88;4974366;28;20027;-84
2023/12/16 02:34:43;;;;;;;1.60;1.50;;;;;;;5.94;100.00;103805.41;4974789;28;20030;-84
2023/12/16 02:37:08;;;;;;;2.45;1.60;;;;;;;5.95;100.00;103806.28;4974807;28;20027;-83
2023/12/16 02:39:34;;;;;;;2.40;1.60;;;;;;;5.91;100.00;103814.69;4973863;28;20023;-84
2023/12/16 02:42:00;;;;;;;1.87;1.53;;;;;;;5.88;100.00;103823.13;4974826;28;20025;-84
2023/12/16 02:44:28;;;;;;;1.80;1.60;;;;;;;5.86;100.00;103823.06;4974044;28;20114;-84
2023/12/16 02:46:53;;;;;;;4.20;1.98;;;;;;;5.72;100.00;103806.88;4973838;28;20031;-84
2023/12/16 02:49:27;;;;;;;2.17;1.80;;;;;;;5.69;100.00;103800.66;4974627;28;20041;-84
2023/12/16 02:52:01;;;;;;;4.38;2.10;;;;;;;5.70;100.00;103808.47;4974504;28;20026;-84
2023/12/16 02:54:27;;;;;;;2.63;2.00;;;;;;;5.72;100.00;103814.59;4974025;28;20015;-84
2023/12/16 02:56:59;;;;;;;2.53;1.93;;;;;;;5.70;100.00;103805.91;4984603;28;20426;-84
2023/12/16 02:59:24;;;;;;;3.83;1.95;;;;;;;5.65;100.00;103796.16;4993720;28;20026;-85
2023/12/16 03:01:55;;;;;;;3.80;2.20;;;;;;;5.70;100.00;103807.56;4992523;28;20026;-84
2023/12/16 03:04:26;;;;;;;2.88;1.92;;;;;;;5.70;100.00;103797.25;4993451;28;20102;-85
2023/12/16 03:06:51;;;;;;;2.22;1.73;;;;;;;5.65;100.00;103798.72;4991839;28;20038;-84
2023/12/16 03:09:17;;;;;;;4.17;1.90;;;;;;;5.66;100.00;103796.22;4993557;28;20110;-84
2023/12/16 03:12:00;;;;;;;2.20;1.73;;;;;;;5.61;100.00;103799.38;4986853;28;20518;-84
2023/12/16 03:14:26;;;;;;;2.25;1.90;;;;;;;5.56;100.00;103791.41;4973680;28;20026;-85
2023/12/16 03:16:58;;;;;;;3.53;1.90;;;;;;;5.50;100.00;103791.94;4973706;28;20439;-84
2023/12/16 03:19:30;;;;;;;2.00;1.45;;;;;;;5.55;100.00;103800.81;4974369;28;20023;-84
2023/12/16 03:22:08;;;;;;;1.73;1.60;;;;;;;5.59;100.00;103809.59;4973110;28;20106;-84
2023/12/16 03:24:33;;;;;;;1.60;1.50;;;;;;;5.60;100.00;103807.91;4973019;28;20121;-84
2023/12/16 03:27:07;;;;;;;3.33;2.20;;;;;;;5.43;100.00;103779.56;4974025;28;20441;-84
2023/12/16 03:29:42;;;;;;;3.97;2.20;;;;;;;5.44;100.00;103780.44;4972379;28;20034;-85
2023/12/16 03:32:07;;;;;;;4.13;2.00;;;;;;;5.59;100.00;103807.03;4973791;28;20038;-84
2023/12/16 03:34:33;;;;;;;4.27;2.00;;;;;;;5.46;100.00;103781.41;4973706;28;20034;-84
2023/12/16 03:36:58;;;;;;;3.07;2.10;;;;;;;5.60;100.00;103801.06;4972145;28;20074;-84
2023/12/16 03:39:23;;;;;;;4.18;2.10;;;;;;;5.59;100.00;103799.28;4973707;28;20051;-84
2023/12/16 03:41:48;;;;;;;3.25;2.03;;;;;;;5.54;100.00;103800.72;4973631;28;20029;-84
2023/12/16 03:44:16;;;;;;;2.93;1.83;;;;;;;5.57;100.00;103808.63;4990573;23;20502;-84
2023/12/16 03:46:42;;;;;;;4.05;2.40;;;;;;;5.57;100.00;103809.50;4987296;28;20111;-84
2023/12/16 03:49:12;;;;;;;2.90;2.00;;;;;;;5.53;100.00;103802.44;4992250;28;20109;-84
2023/12/16 03:51:41;;;;;;;3.75;2.10;;;;;;;5.53;100.00;103801.53;4992979;28;20478;-84
2023/12/16 03:54:06;;;;;;;2.70;2.10;;;;;;;5.56;100.00;103812.00;4993591;28;20033;-84
2023/12/16 03:56:31;;;;;;;3.90;2.00;;;;;;;5.53;100.00;103805.00;4995472;28;20039;-84
2023/12/16 03:58:57;;;;;;;3.38;2.20;;;;;;;5.56;100.00;103812.00;4997287;28;20026;-84
2023/12/16 04:01:23;;;;;;;3.73;2.00;;;;;;;5.55;100.00;103805.06;4997278;28;20040;-84
2023/12/16 04:03:59;;;;;;;7.78;2.60;;;;;;;5.60;100.00;103808.81;4995737;28;20106;-85
2023/12/16 04:06:33;;;;;;;5.13;2.30;;;;;;;5.59;100.00;103801.88;4997097;28;20019;-84
2023/12/16 04:09:01;;;;;;;5.75;2.50;;;;;;;5.55;100.00;103797.34;4996999;28;20030;-84
2023/12/16 04:11:30;;;;;;;4.63;2.45;;;;;;;5.53;100.00;103794.69;4996387;28;20025;-84
2023/12/16 04:14:10;;;;;;;3.25;2.00;;;;;;;5.57;100.00;103808.63;4996533;28;20022;-84
2023/12/16 04:16:41;;;;;;;4.43;2.00;;;;;;;5.55;100.00;103803.41;4996818;28;20379;-84
2023/12/16 04:19:07;;;;;;;6.72;2.58;;;;;;;5.63;100.00;103816.66;4996208;28;20026;-84
2023/12/16 04:21:32;;;;;;;9.60;3.23;;;;;;;5.60;100.00;103810.47;4996373;28;20092;-84
2023/12/16 04:23:58;;;;;;;6.30;2.90;;;;;;;5.61;100.00;103813.16;4996768;28;20029;-84
2023/12/16 04:26:23;;;;;;;3.97;2.33;;;;;;;5.59;100.00;103821.56;4996088;28;20054;-84
2023/12/16 04:28:49;;;;;;;3.73;2.30;;;;;;;5.57;100.00;103809.50;4996556;28;20117;-84
2023/12/16 04:31:20;;;;;;;4.23;2.40;;;;;;;5.59;100.00;103809.59;4995412;28;20081;-84
2023/12/16 04:33:46;;;;;;;4.75;2.40;;;;;;;5.57;100.00;103796.63;4995669;28;20042;-84
2023/12/16 04:36:16;;;;;;;4.83;2.50;;;;;;;5.62;100.00;103801.13;4996041;28;20022;-84
2023/12/16 04:38:42;;;;;;;3.92;2.47;;;;;;;5.63;100.00;103798.63;4995925;28;20038;-84
2023/12/16 04:41:10;;;;;;;4.43;2.80;;;;;;;5.59;100.00;103790.66;5010762;23;20055;-84
2023/12/16 04:43:35;;;;;;;4.72;2.60;;;;;;;5.60;100.00;103792.44;4995349;28;20030;-84
2023/12/16 04:46:01;;;;;;;5.93;2.60;;;;;;;5.57;100.00;103788.88;4994714;28;20029;-84
2023/12/16 04:48:26;;;;;;;6.97;2.60;;;;;;;5.56;100.00;103786.25;4996213;28;20029;-84
2023/12/16 04:50:51;;;;;;;4.40;2.57;;;;;;;5.54;100.00;103783.59;4995858;28;20026;-84
2023/12/16 04:53:17;;;;;;;5.38;2.63;;;;;;;5.59;100.00;103783.84;4995411;28;20031;-84
2023/12/16 04:55:42;;;;;;;4.63;2.60;;;;;;;5.59;100.00;103791.56;4995693;28;20361;-84
2023/12/16 04:58:07;;;;;;;7.30;2.63;;;;;;;5.50;100.00;103770.47;5002355;23;20055;-84
2023/12/16 05:00:39;;;;;;;5.40;2.47;;;;;;;5.59;100.00;103786.41;4994925;28;20109;-84
2023/12/16 05:03:04;;;;;;;6.97;2.63;;;;;;;5.54;100.00;103783.59;4995897;28;20478;-84
2023/12/16 05:05:29;;;;;;;3.27;2.40;;;;;;;5.56;100.00;103786.25;4995598;28;20154;-84
2023/12/16 05:07:55;;;;;;;4.67;2.40;;;;;;;5.53;100.00;103792.13;4995078;28;20038;-84
2023/12/16 05:10:20;;;;;;;4.20;2.30;;;;;;;5.51;100.00;103798.88;4996171;28;20360;-84
2023/12/16 05:12:45;;;;;;;4.72;2.30;;;;;;;5.51;100.00;103793.72;4995510;28;20113;-84
2023/12/16 05:15:14;;;;;;;4.85;2.30;;;;;;;5.50;100.00;103791.09;4995522;28;20045;-84
2023/12/16 05:17:42;;;;;;;4.28;2.35;;;;;;;5.44;100.00;103799.38;4995555;28;20356;-84
2023/12/16 05:20:08;;;;;;;5.35;2.63;;;;;;;5.40;100.00;103800.00;4995639;28;20050;-84
2023/12/16 05:22:33;;;;;;;6.03;2.40;;;;;;;5.39;100.00;103809.44;4994552;28;20031;-84
2023/12/16 05:25:06;;;;;;;2.83;2.10;;;;;;;5.38;100.00;103822.19;4995529;28;20031;-84
2023/12/16 05:27:50;;;;;;;6.55;2.20;;;;;;;5.22;100.00;103785.34;4994514;28;20022;-84
2023/12/16 05:30:27;;;;;;;5.68;2.42;;;;;;;5.26;100.00;103802.69;4995203;28;20089;-84
2023/12/16 05:32:55;;;;;;;4.40;2.25;;;;;;;5.16;100.00;103790.13;4995233;28;20031;-84
2023/12/16 05:35:21;;;;;;;4.15;2.17;;;;;;;5.27;100.00;103808.75;4994820;28;20061;-84
2023/12/16 05:38:21;;;;;;;3.30;2.10;;;;;;;5.10;100.00;103774.38;4995548;28;20097;-84
2023/12/16 05:40:47;;;;;;;3.67;2.05;;;;;;;5.17;100.00;103796.19;4987523;28;20034;-84
2023/12/16 05:43:24;;;;;;;3.87;2.17;;;;;;;5.05;100.00;103774.13;4994630;28;20045;-84
2023/12/16 05:45:55;;;;;;;4.35;1.90;;;;;;;5.17;100.00;103803.91;4994954;28;20026;-84
2023/12/16 05:48:20;;;;;;;4.47;1.92;;;;;;;5.19;100.00;103813.47;4995313;28;20029;-84
2023/12/16 05:50:46;;;;;;;4.40;2.20;;;;;;;5.13;100.00;103802.81;4993989;28;20022;-84
2023/12/16 05:53:20;;;;;;;2.83;2.00;;;;;;;5.10;100.00;103788.09;4994532;28;20030;-84
2023/12/16 05:55:47;;;;;;;3.50;2.00;;;;;;;5.12;100.00;103792.47;4993867;28;20479;-85
2023/12/16 05:58:12;;;;;;;5.55;2.20;;;;;;;5.08;100.00;103787.13;4994836;28;20414;-84
2023/12/16 06:00:53;;;;;;;6.43;2.40;;;;;;;5.08;100.00;103797.44;4994798;28;20038;-84
2023/12/16 06:03:24;;;;;;;4.75;2.25;;;;;;;4.95;100.00;103771.84;4974384;28;20035;-84
2023/12/16 06:05:50;;;;;;;5.97;2.40;;;;;;;5.05;100.00;103786.09;4987167;23;21242;-84
2023/12/16 06:08:15;;;;;;;3.93;2.10;;;;;;;5.06;100.00;103791.34;5014279;28;20157;-84
2023/12/16 06:10:41;;;;;;;3.17;2.05;;;;;;;5.04;100.00;103795.50;5012862;28;20026;-84
2023/12/16 06:13:06;;;;;;;3.83;1.90;;;;;;;5.04;100.00;103810.06;5014539;28;20022;-84
2023/12/16 06:15:31;;;;;;;5.90;2.58;;;;;;;5.01;100.00;103808.19;5014185;28;20026;-84
2023/12/16 06:17:59;;;;;;;4.07;2.25;;;;;;;5.01;100.00;103810.78;5013432;28;20470;-84
2023/12/16 06:20:27;;;;;;;4.28;2.10;;;;;;;5.01;100.00;103804.75;5014295;28;20378;-84
2023/12/16 06:22:53;;;;;;;4.25;2.40;;;;;;;5.03;100.00;103804.03;5014372;28;20037;-84
2023/12/16 06:25:18;;;;;;;5.68;2.35;;;;;;;5.01;100.00;103812.47;5013420;28;20417;-84
2023/12/16 06:27:46;;;;;;;5.83;2.23;;;;;;;4.97;100.00;103795.09;5013757;28;20026;-84
2023/12/16 06:30:12;;;;;;;5.80;2.35;;;;;;;4.98;100.00;103797.72;5003299;28;20045;-84
2023/12/16 06:32:37;;;;;;;7.20;2.30;;;;;;;4.98;100.00;103802.88;4992098;28;20038;-84
2023/12/16 06:35:03;;;;;;;5.95;2.60;;;;;;;4.90;100.00;103793.84;4992791;28;20029;-84
2023/12/16 06:37:28;;;;;;;10.98;2.83;;;;;;;4.95;100.00;103797.59;4992309;28;20426;-84
2023/12/16 06:39:54;;;;;;;6.82;2.72;;;;;;;4.93;100.00;103799.19;4993238;28;20529;-84
2023/12/16 06:42:20;;;;;;;5.20;2.63;;;;;;;4.93;100.00;103796.59;4993941;28;20033;-84
2023/12/16 06:44:45;;;;;;;6.32;2.50;;;;;;;4.89;100.00;103799.78;4993511;28;20382;-84
2023/12/16 06:47:11;;;;;;;3.65;2.30;;;;;;;4.85;100.00;103801.31;4994151;28;20037;-84
2023/12/16 06:49:37;;;;;;;3.23;2.17;;;;;;;4.79;100.00;103788.09;4993978;28;20478;-84
2023/12/16 06:52:02;;;;;;;4.25;2.15;;;;;;;4.79;100.00;103793.22;4993356;28;20026;-84
2023/12/16 06:54:28;;;;;;;2.33;2.00;;;;;;;4.84;100.00;103807.25;4994402;28;20033;-84
2023/12/16 06:56:53;;;;;;;5.27;2.57;;;;;;;4.77;100.00;103800.00;4993398;28;20029;-84
2023/12/16 06:59:18;;;;;;;4.95;2.28;;;;;;;4.81;100.00;103813.94;4996831;28;20026;-83
2023/12/16 07:01:43;;;;;;;3.95;2.13;;;;;;;4.76;100.00;103811.09;5012934;28;20026;-83
2023/12/16 07:04:09;;;;;;;5.53;2.03;;;;;;;4.78;100.00;103812.94;5013116;28;20022;-83
2023/12/16 07:06:35;;;;;;;5.55;2.38;;;;;;;4.78;100.00;103817.22;5012482;28;20119;-82
2023/12/16 07:09:02;;;;;;;4.80;2.30;;;;;;;4.77;100.00;103810.31;5013483;28;20026;-85
2023/12/16 07:11:28;;;;;;;4.18;1.98;;;;;;;4.70;100.00;103801.34;5013196;28;20022;-86
2023/12/16 07:13:56;;;;;;;6.03;2.43;;;;;;;4.70;100.00;103809.06;5012327;28;20105;-86
2023/12/16 07:16:21;;;;;;;4.88;2.45;;;;;;;4.69;100.00;103815.00;5013451;28;20073;-86
2023/12/16 07:18:46;;;;;;;4.35;2.20;;;;;;;4.67;100.00;103815.72;5013305;28;20030;-86
2023/12/16 07:21:21;;;;;;;4.15;2.20;;;;;;;4.59;100.00;103805.00;5012219;28;20137;-87
2023/12/16 07:23:52;;;;;;;4.18;2.15;;;;;;;4.56;100.00;103803.09;5013261;28;20050;-86
2023/12/16 07:26:36;;;;;;;6.57;2.40;;;;;;;4.53;100.00;103797.81;5013780;28;20030;-86
2023/12/16 07:29:13;;;;;;;6.63;2.50;;;;;;;4.61;100.00;103813.69;5012648;28;20494;-86
2023/12/16 07:31:53;;;;;;;3.47;2.03;;;;;;;4.57;100.00;103820.31;5012341;28;20037;-86
2023/12/16 07:34:27;;;;;;;6.15;2.40;;;;;;;4.57;100.00;103822.88;4993092;28;20022;-86
2023/12/16 07:37:01;;;;;;;5.15;2.40;;;;;;;4.58;100.00;103834.94;4993398;28;20037;-86
2023/12/16 07:39:27;;;;;;;4.97;2.35;;;;;;;4.61;100.00;103839.41;4993596;28;20041;-87
2023/12/16 07:41:55;;;;;;;8.85;2.60;;;;;;;4.64;100.00;103849.84;4992963;28;20030;-87
2023/12/16 07:44:20;;;;;;;3.15;2.10;;;;;;;4.56;100.00;103833.09;4987616;28;20034;-84
2023/12/16 07:47:11;;;;;;;6.47;2.20;;;;;;;4.62;100.00;103836.91;4993149;28;20113;-85
2023/12/16 07:49:54;;;;;;;5.20;2.20;;;;;;;4.57;100.00;103832.31;4992335;28;20142;-84
2023/12/16 07:52:21;;;;;;;7.50;2.40;;;;;;;4.52;100.00;103821.75;4993491;28;20035;-83
2023/12/16 07:54:46;;;;;;;5.00;2.50;;;;;;;4.53;100.00;103812.34;4993113;28;20030;-83
2023/12/16 07:57:27;;;;;;;4.60;2.40;;;;;;;4.57;100.00;103833.19;4992985;28;20019;-84
2023/12/16 07:59:52;;;;;;;8.23;2.90;;;;;;;4.61;100.00;103841.97;4992828;28;20037;-83
2023/12/16 08:02:17;;;;;;;7.45;2.63;;;;;;;4.60;100.00;103829.91;4992694;28;20026;-83
2023/12/16 08:05:04;;;;;;;4.80;2.63;;;;;;;4.59;100.00;103841.00;4992918;28;20546;-80
2023/12/16 08:07:30;;;;;;;5.45;2.50;;;;;;;4.62;100.00;103847.22;4992331;28;20047;-83
2023/12/16 08:09:55;;;;;;;6.55;2.53;;;;;;;4.67;100.00;103859.47;4992057;28;20026;-84
2023/12/16 08:12:20;;;;;;;9.00;2.70;;;;;;;4.62;100.00;103852.34;4993189;28;20026;-84
2023/12/16 08:14:46;;;;;;;7.60;2.70;;;;;;;4.69;100.00;103857.84;4993125;28;20038;-84
2023/12/16 08:17:11;;;;;;;5.27;2.30;;;;;;;4.67;100.00;103855.19;4991963;28;20109;-84
2023/12/16 08:19:36;;;;;;;6.70;2.40;;;;;;;4.69;100.00;103863.88;4993144;28;20487;-82
2023/12/16 08:22:02;;;;;;;7.00;2.70;;;;;;;4.70;100.00;103859.63;4992897;28;20022;-84
2023/12/16 08:24:31;;;;;;;7.50;2.40;;;;;;;4.74;100.00;103866.72;4992453;28;20387;-84
2023/12/16 08:26:56;;;;;;;6.50;2.80;;;;;;;4.78;100.00;103866.09;4993316;28;20414;-84
2023/12/16 08:29:22;;;;;;;6.88;2.70;;;;;;;4.80;100.00;103864.50;4992897;28;20019;-84
2023/12/16 08:31:47;;;;;;;6.68;2.90;;;;;;;4.83;100.00;103872.38;4991989;28;20061;-84
2023/12/16 08:34:12;;;;;;;6.13;2.60;;;;;;;4.83;100.00;103869.81;4992665;28;20026;-84
2023/12/16 08:36:38;;;;;;;5.65;2.60;;;;;;;4.86;100.00;103866.53;4992450;28;20081;-84
2023/12/16 08:39:03;;;;;;;9.88;3.10;;;;;;;4.93;100.00;103869.53;4992026;28;20082;-83
2023/12/16 08:41:37;;;;;;;7.13;2.80;;;;;;;4.96;100.00;103866.25;5004455;23;20101;-83
2023/12/16 08:44:03;;;;;;;5.35;2.42;;;;;;;4.99;100.00;103863.84;4996704;28;20056;-83
2023/12/16 08:46:28;;;;;;;7.13;2.65;;;;;;;5.09;100.00;103865.28;4995979;28;20046;-84
2023/12/16 08:48:54;;;;;;;10.17;2.90;;;;;;;5.15;100.00;103865.59;4996107;28;20033;-84
2023/12/16 08:51:21;;;;;;;9.80;2.80;;;;;;;5.19;100.00;103858.94;4996721;28;20037;-84
2023/12/16 08:53:46;;;;;;;;;;;;;;;5.30;100.00;103860.41;4997109;28;20027;-84
2023/12/16 08:56:11;;;;;;;8.23;3.00;;;;;;;5.31;100.00;103851.88;4997026;28;19960;-84
2023/12/16 08:58:37;;;;;;;4.87;2.57;;;;;;;5.33;100.00;103850.28;4995429;28;20402;-84
2023/12/16 09:01:03;;;;;;;6.27;2.70;;;;;;;5.43;100.00;103853.34;4996314;28;20034;-84
2023/12/16 09:03:28;;;;;;;5.10;2.27;;;;;;;5.48;100.00;103860.53;4996426;28;20034;-84
2023/12/16 09:05:53;;;;;;;6.80;2.60;;;;;;;5.52;100.00;103867.63;4995467;28;20289;-84
2023/12/16 09:08:21;;;;;;;6.07;2.28;;;;;;;5.56;100.00;103885.06;4996486;28;20065;-84
2023/12/16 09:10:47;;;;;;;6.35;2.47;;;;;;;5.52;100.00;103865.06;5014805;28;20056;-84
2023/12/16 09:13:30;;;;;;;3.10;2.00;;;;;;;5.61;100.00;103874.09;5015089;28;20058;-85
2023/12/16 09:15:55;;;;;;;7.50;2.50;;;;;;;5.68;100.00;103866.78;5015438;28;20025;-85
2023/12/16 09:18:21;;;;;;;5.47;2.30;;;;;;;5.77;100.00;103884.44;5015593;28;20060;-84
2023/12/16 09:20:46;;;;;;;9.80;2.72;;;;;;;5.84;100.00;103885.66;5014700;28;20497;-84
2023/12/16 09:23:14;;;;;;;8.13;2.70;;;;;;;5.90;100.00;103891.13;5015241;28;20036;-84
2023/12/16 09:25:39;;;;;;;9.95;3.10;;;;;;;5.94;100.00;103881.84;5010390;23;20093;-84
2023/12/16 09:28:04;;;;;;;9.80;3.03;;;;;;;6.01;100.00;103878.84;4995312;28;20018;-84
2023/12/16 09:30:29;;;;;;;8.53;3.10;;;;;;;6.05;100.00;103882.47;4995673;28;20371;-83
2023/12/16 09:32:55;;;;;;;8.65;2.90;;;;;;;6.09;100.00;103884.38;4980518;28;20038;-83
2023/12/16 09:35:23;;;;;;;8.77;3.00;;;;;;;6.15;100.00;103898.47;4989703;28;20089;-83
2023/12/16 09:37:50;;;;;;;6.40;2.90;;;;;;;6.21;100.00;103902.19;4976807;28;20035;-84
2023/12/16 09:40:33;;;;;;;7.65;2.60;;;;;;;6.16;100.00;103878.75;4976340;28;20031;-84
2023/12/16 09:43:16;;;;;;;6.45;3.00;;;;;;;6.22;100.00;103878.19;4984399;28;20042;-83
2023/12/16 09:45:57;;;;;;;8.55;2.80;;;;;;;6.29;100.00;103886.31;4977128;28;20066;-83
2023/12/16 09:48:23;;;;;;;7.25;2.70;;;;;;;6.38;100.00;103901.38;4979261;28;20114;-85
2023/12/16 09:51:01;;;;;;;6.27;2.70;;;;;;;6.39;100.00;103900.56;4989958;28;20454;-84
2023/12/16 09:53:35;;;;;;;8.25;3.20;;;;;;;6.43;100.00;103902.50;4995202;28;20533;-84
2023/12/16 09:56:09;;;;;;;7.82;3.13;;;;;;;6.40;100.00;103898.88;4994633;28;20026;-84
2023/12/16 09:58:38;;;;;;;8.65;3.40;;;;;;;6.53;100.00;103905.53;4990049;28;20033;-85
2023/12/16 10:01:11;;;;;;;9.85;3.25;;;;;;;6.60;100.00;103908.53;4976976;28;20030;-84
2023/12/16 10:03:37;;;;;;;7.53;2.60;;;;;;;6.59;100.00;103899.00;4976329;28;20034;-84
2023/12/16 10:06:07;;;;;;;8.55;2.83;;;;;;;6.70;100.00;103915.00;4976767;28;20027;-84
2023/12/16 10:08:34;;;;;;;9.00;2.90;;;;;;;6.75;100.00;103916.16;4976128;28;20026;-84
2023/12/16 10:11:00;;;;;;;11.20;3.45;;;;;;;6.76;100.00;103917.91;4975730;28;20054;-85
2023/12/16 10:13:31;;;;;;;9.23;3.40;;;;;;;6.82;100.00;103913.84;4976430;28;20079;-85
2023/12/16 10:15:57;;;;;;;9.90;3.50;;;;;;;6.88;100.00;103914.19;4983067;28;20042;-85
2023/12/16 10:18:23;;;;;;;11.10;3.65;;;;;;;6.90;100.00;103917.72;4976361;28;20023;-86
2023/12/16 10:21:07;;;;;;;9.20;3.50;;;;;;;6.93;100.00;103915.28;4976047;28;20046;-85
2023/12/16 10:23:36;;;;;;;11.50;3.90;;;;;;;6.97;100.00;103916.34;4976747;28;20023;-85
2023/12/16 10:26:02;;;;;;;8.35;3.45;;;;;;;6.98;100.00;103918.13;4993876;28;20145;-85
2023/12/16 10:28:27;;;;;;;8.83;3.30;;;;;;;7.03;100.00;103916.63;4994367;28;20101;-86
2023/12/16 10:30:56;;;;;;;11.33;3.43;;;;;;;6.94;100.00;103904.13;4993546;28;20023;-86
2023/12/16 10:33:22;;;;;;;7.35;3.22;;;;;;;7.06;100.00;103914.19;4994432;28;20113;-85
2023/12/16 10:35:48;;;;;;;;;;;;;;;7.08;100.00;103921.19;4994733;28;20022;-86
2023/12/16 10:38:16;;;;;;;10.30;3.90;;;;;;;7.04;100.00;103902.91;4994547;28;19965;-86
2023/12/16 10:40:42;;;;;;;11.85;3.85;;;;;;;7.09;100.00;103904.03;4993925;28;20611;-86
2023/12/16 10:43:08;;;;;;;10.75;4.05;;;;;;;7.18;100.00;103911.31;4994609;28;20029;-85
2023/12/16 10:45:36;;;;;;;13.33;4.10;;;;;;;7.19;100.00;103905.34;4993143;28;20498;-86
2023/12/16 10:48:09;;;;;;;8.80;3.60;;;;;;;7.21;100.00;103909.75;4993289;28;20033;-86
2023/12/16 10:50:43;;;;;;;11.68;4.40;;;;;;;7.21;100.00;103886.50;4993600;28;20022;-85
2023/12/16 10:53:21;;;;;;;12.75;4.00;;;;;;;7.26;100.00;103891.91;4991461;28;20018;-86
2023/12/16 10:55:54;;;;;;;10.63;3.80;;;;;;;7.30;100.00;103890.38;4988521;28;20026;-86
2023/12/16 10:58:27;;;;;;;9.82;3.65;;;;;;;7.36;100.00;103900.97;4994254;28;20056;-85
2023/12/16 11:01:04;;;;;;;12.52;4.38;;;;;;;7.36;100.00;103888.06;4994299;28;20061;-87
2023/12/16 11:04:05;;;;;;;12.75;4.82;;;;;;;7.42;100.00;103893.53;4982150;28;20034;-86
2023/12/16 11:06:38;;;;;;;9.68;3.90;;;;;;;7.45;100.00;103896.22;4930989;28;20030;-82
2023/12/16 11:09:08;;;;;;;11.75;3.60;;;;;;;7.47;100.00;103891.16;4975233;28;20463;-85
2023/12/16 11:11:34;;;;;;;11.13;3.80;;;;;;;7.49;100.00;103886.91;4974793;28;20042;-85
2023/12/16 11:14:00;;;;;;;8.83;3.50;;;;;;;7.48;100.00;103885.19;4973840;28;20097;-85
2023/12/16 11:16:39;;;;;;;9.65;3.70;;;;;;;7.54;100.00;103885.44;4975902;28;20031;-86
2023/12/16 11:19:07;;;;;;;10.57;3.40;;;;;;;7.55;100.00;103877.75;4973893;28;20136;-86
2023/12/16 11:21:35;;;;;;;7.82;3.40;;;;;;;7.53;100.00;103874.25;4975374;28;20090;-86
2023/12/16 11:24:01;;;;;;;12.85;4.30;;;;;;;7.58;100.00;103874.44;4983665;23;20181;-86
2023/12/16 11:26:27;;;;;;;11.40;4.00;;;;;;;7.59;100.00;103865.88;4993456;28;20038;-86
2023/12/16 11:28:54;;;;;;;9.32;4.00;;;;;;;7.56;100.00;103864.00;4992219;28;20065;-85
2023/12/16 11:31:19;;;;;;;9.32;3.60;;;;;;;7.62;100.00;103866.00;4993915;28;20022;-86
2023/12/16 11:33:46;;;;;;;10.93;4.00;;;;;;;7.63;100.00;103865.19;4993161;28;20053;-86